createdAt,value
2023-06-22T00:01:25.363Z,99.90
2023-06-22T00:03:28.271Z,99.90
2023-06-22T00:05:30.945Z,99.90
2023-06-22T00:07:33.754Z,99.90
2023-06-22T00:09:36.644Z,99.90
2023-06-22T00:11:39.419Z,99.90
2023-06-22T00:13:43.206Z,99.90
2023-06-22T00:15:46.035Z,99.90
2023-06-22T00:17:48.652Z,99.90
2023-06-22T00:19:51.507Z,99.90
2023-06-22T00:21:54.294Z,99.90
2023-06-22T00:23:57.055Z,99.90
2023-06-22T00:26:00.003Z,99.90
2023-06-22T00:28:02.966Z,99.90
2023-06-22T00:30:05.597Z,99.90
2023-06-22T00:32:08.660Z,99.90
2023-06-22T00:34:12.489Z,99.90
2023-06-22T00:36:15.192Z,99.90
2023-06-22T00:38:18.887Z,99.90
2023-06-22T00:40:21.692Z,99.90
2023-06-22T00:42:25.070Z,99.90
2023-06-22T00:44:27.864Z,99.90
2023-06-22T00:46:30.616Z,99.90
2023-06-22T00:48:33.262Z,99.40
2023-06-22T00:50:36.160Z,98.00
2023-06-22T00:52:41.401Z,98.00
2023-06-22T00:54:44.018Z,97.60
2023-06-22T00:56:52.563Z,97.50
2023-06-22T00:58:55.308Z,97.30
2023-06-22T01:00:58.013Z,97.40
2023-06-22T01:03:01.776Z,96.70
2023-06-22T01:05:04.555Z,96.30
2023-06-22T01:07:09.567Z,96.00
2023-06-22T01:09:12.362Z,96.30
2023-06-22T01:11:15.155Z,95.70
2023-06-22T01:13:17.805Z,95.90
2023-06-22T01:15:20.480Z,95.60
2023-06-22T01:17:23.207Z,95.70
2023-06-22T01:19:25.844Z,95.70
2023-06-22T01:21:28.652Z,95.10
2023-06-22T01:23:31.555Z,95.30
2023-06-22T01:25:34.188Z,95.10
2023-06-22T01:27:37.058Z,95.30
2023-06-22T01:29:40.074Z,95.20
2023-06-22T01:31:42.925Z,95.10
2023-06-22T01:33:45.809Z,94.60
2023-06-22T01:35:48.683Z,94.60
2023-06-22T01:37:51.495Z,94.30
2023-06-22T01:39:55.019Z,94.40
2023-06-22T01:41:57.984Z,94.30
2023-06-22T01:44:00.632Z,93.50
2023-06-22T01:46:03.810Z,93.30
2023-06-22T01:48:07.718Z,92.70
2023-06-22T01:50:10.598Z,92.70
2023-06-22T01:52:13.491Z,93.20
2023-06-22T01:54:16.867Z,93.10
2023-06-22T01:56:19.493Z,92.70
2023-06-22T01:58:23.115Z,92.70
2023-06-22T02:00:26.262Z,92.30
2023-06-22T02:02:29.688Z,92.20
2023-06-22T02:04:33.391Z,92.00
2023-06-22T02:06:36.203Z,91.80
2023-06-22T02:08:38.958Z,91.70
2023-06-22T02:10:42.418Z,92.00
2023-06-22T02:12:45.227Z,91.50
2023-06-22T02:14:47.868Z,92.20
2023-06-22T02:16:50.577Z,92.00
2023-06-22T02:18:53.408Z,91.00
2023-06-22T02:20:56.428Z,90.50
2023-06-22T02:22:59.232Z,90.60
2023-06-22T02:25:01.842Z,90.70
2023-06-22T02:27:05.526Z,90.50
2023-06-22T02:29:08.245Z,90.40
2023-06-22T02:31:11.107Z,88.00
2023-06-22T02:33:14.151Z,87.80
2023-06-22T02:35:17.963Z,88.90
2023-06-22T02:37:20.715Z,89.10
2023-06-22T02:39:25.899Z,89.80
2023-06-22T02:41:29.594Z,88.80
2023-06-22T02:43:32.673Z,89.30
2023-06-22T02:45:35.324Z,88.20
2023-06-22T02:47:38.201Z,89.20
2023-06-22T02:49:40.930Z,90.20
2023-06-22T02:51:43.537Z,89.00
2023-06-22T02:53:47.037Z,85.90
2023-06-22T02:55:49.938Z,84.90
2023-06-22T02:57:52.721Z,85.10
2023-06-22T02:59:55.412Z,85.00
2023-06-22T03:01:58.665Z,84.20
2023-06-22T03:04:01.371Z,83.50
2023-06-22T03:06:04.038Z,82.40
2023-06-22T03:08:08.912Z,80.50
2023-06-22T03:10:11.631Z,78.10
2023-06-22T03:12:15.133Z,79.50
2023-06-22T03:14:17.802Z,78.60
2023-06-22T03:16:21.177Z,78.90
2023-06-22T03:18:24.017Z,77.80
2023-06-22T03:20:26.869Z,78.30
2023-06-22T03:22:29.596Z,77.00
2023-06-22T03:24:32.262Z,78.20
2023-06-22T03:26:35.134Z,78.70
2023-06-22T03:28:40.171Z,77.30
2023-06-22T03:30:43.295Z,76.90
2023-06-22T03:32:46.030Z,77.10
2023-06-22T03:34:48.674Z,76.00
2023-06-22T03:36:51.492Z,75.20
2023-06-22T03:38:54.719Z,73.50
2023-06-22T03:40:57.368Z,74.10
2023-06-22T03:43:00.215Z,75.20
2023-06-22T03:45:03.110Z,74.50
2023-06-22T03:47:06.460Z,73.90
2023-06-22T03:49:09.421Z,73.30
2023-06-22T03:51:13.729Z,73.70
2023-06-22T03:53:20.845Z,74.10
2023-06-22T03:55:23.647Z,72.40
2023-06-22T03:57:26.624Z,72.60
2023-06-22T03:59:29.358Z,72.60
2023-06-22T04:01:32.241Z,71.40
2023-06-22T04:03:35.626Z,72.20
2023-06-22T04:05:38.375Z,71.50
2023-06-22T04:07:42.012Z,72.10
2023-06-22T04:09:45.032Z,71.50
2023-06-22T04:11:50.216Z,71.90
2023-06-22T04:13:54.018Z,72.10
2023-06-22T04:15:56.902Z,71.60
2023-06-22T04:17:59.583Z,71.10
2023-06-22T04:20:02.462Z,72.20
2023-06-22T04:22:06.158Z,71.00
2023-06-22T04:24:08.792Z,70.50
2023-06-22T04:26:12.405Z,70.50
2023-06-22T04:28:15.592Z,69.90
2023-06-22T04:30:18.282Z,68.90
2023-06-22T04:32:21.412Z,69.50
2023-06-22T04:34:24.165Z,70.00
2023-06-22T04:36:26.823Z,69.60
2023-06-22T04:38:29.533Z,68.30
2023-06-22T04:40:32.492Z,68.40
2023-06-22T04:42:35.300Z,68.80
2023-06-22T04:44:38.063Z,68.40
2023-06-22T04:46:43.537Z,69.00
2023-06-22T04:48:46.167Z,69.60
2023-06-22T04:50:49.114Z,68.20
2023-06-22T04:52:52.178Z,68.20
2023-06-22T04:54:54.873Z,67.60
2023-06-22T04:56:57.669Z,67.20
2023-06-22T04:59:01.480Z,68.20
2023-06-22T05:01:04.118Z,67.10
2023-06-22T05:03:19.192Z,66.60
2023-06-22T05:05:23.015Z,66.80
2023-06-22T05:07:25.576Z,68.00
2023-06-22T05:09:28.275Z,67.40
2023-06-22T05:11:31.447Z,66.70
2023-06-22T05:13:34.349Z,66.20
2023-06-22T05:15:37.213Z,67.00
2023-06-22T05:17:39.901Z,69.10
2023-06-22T05:19:42.754Z,68.70
2023-06-22T05:21:45.592Z,69.30
2023-06-22T05:23:48.517Z,67.80
2023-06-22T05:25:51.237Z,65.70
2023-06-22T05:27:54.052Z,66.40
2023-06-22T05:29:56.990Z,65.90
2023-06-22T05:31:59.545Z,65.30
2023-06-22T05:34:02.337Z,64.10
2023-06-22T05:36:05.005Z,63.30
2023-06-22T05:38:08.916Z,63.30
2023-06-22T05:40:22.623Z,64.50
2023-06-22T05:42:28.640Z,62.90
2023-06-22T05:44:31.216Z,62.90
2023-06-22T05:46:33.858Z,63.40
2023-06-22T05:48:36.435Z,63.80
2023-06-22T05:50:39.246Z,62.90
2023-06-22T05:52:41.903Z,63.30
2023-06-22T05:54:44.681Z,62.00
2023-06-22T05:56:47.346Z,61.90
2023-06-22T05:58:50.153Z,61.10
2023-06-22T06:00:53.037Z,61.00
2023-06-22T06:02:56.384Z,61.90
2023-06-22T06:04:59.870Z,60.60
2023-06-22T06:07:02.744Z,61.20
2023-06-22T06:09:05.328Z,61.80
2023-06-22T06:11:08.282Z,61.60
2023-06-22T06:13:11.678Z,61.80
2023-06-22T06:15:14.266Z,61.00
2023-06-22T06:17:17.092Z,60.30
2023-06-22T06:19:19.815Z,59.70
2023-06-22T06:21:22.428Z,59.30
2023-06-22T06:23:25.110Z,58.90
2023-06-22T06:25:28.079Z,59.70
2023-06-22T06:27:31.483Z,59.20
2023-06-22T06:29:34.130Z,59.80
2023-06-22T06:31:36.836Z,57.70
2023-06-22T06:33:39.451Z,57.90
2023-06-22T06:35:42.278Z,59.10
2023-06-22T06:37:45.479Z,59.30
2023-06-22T06:39:48.084Z,59.60
2023-06-22T06:41:51.518Z,59.80
2023-06-22T06:43:54.202Z,59.50
2023-06-22T06:45:56.811Z,59.80
2023-06-22T06:48:00.391Z,59.30
2023-06-22T06:50:03.333Z,58.00
2023-06-22T06:52:06.265Z,58.50
2023-06-22T06:54:08.960Z,57.90
2023-06-22T06:56:12.174Z,58.60
2023-06-22T06:58:14.946Z,59.50
2023-06-22T07:00:18.709Z,60.40
2023-06-22T07:02:21.541Z,59.30
2023-06-22T07:04:24.315Z,59.90
2023-06-22T07:06:27.160Z,57.50
2023-06-22T07:08:29.829Z,57.10
2023-06-22T07:10:33.487Z,56.10
2023-06-22T07:12:36.348Z,56.70
2023-06-22T07:14:39.330Z,56.90
2023-06-22T07:16:42.035Z,58.70
2023-06-22T07:18:45.874Z,58.70
2023-06-22T07:20:49.167Z,60.30
2023-06-22T07:22:51.810Z,59.10
2023-06-22T07:24:55.400Z,58.50
2023-06-22T07:26:58.711Z,58.40
2023-06-22T07:29:01.348Z,58.60
2023-06-22T07:31:04.248Z,58.90
2023-06-22T07:33:07.271Z,58.40
2023-06-22T07:35:10.285Z,58.60
2023-06-22T07:37:13.395Z,58.70
2023-06-22T07:39:16.955Z,57.90
2023-06-22T07:41:19.536Z,58.20
2023-06-22T07:43:23.496Z,57.60
2023-06-22T07:45:27.796Z,57.20
2023-06-22T07:47:30.710Z,57.00
2023-06-22T07:49:33.767Z,57.80
2023-06-22T07:51:36.565Z,57.90
2023-06-22T07:53:39.246Z,57.70
2023-06-22T07:55:41.875Z,57.60
2023-06-22T07:57:45.219Z,58.20
2023-06-22T07:59:47.798Z,58.30
2023-06-22T08:01:51.926Z,58.30
2023-06-22T08:03:54.851Z,56.20
2023-06-22T08:05:57.428Z,55.40
2023-06-22T08:08:00.244Z,53.20
2023-06-22T08:10:03.248Z,53.30
2023-06-22T08:12:05.932Z,54.20
2023-06-22T08:14:08.740Z,53.30
2023-06-22T08:16:11.497Z,53.30
2023-06-22T08:18:14.951Z,53.30
2023-06-22T08:20:17.836Z,53.70
2023-06-22T08:22:21.116Z,55.30
2023-06-22T08:24:23.695Z,56.00
2023-06-22T08:26:26.479Z,57.20
2023-06-22T08:28:29.446Z,55.40
2023-06-22T08:30:32.019Z,55.00
2023-06-22T08:32:35.951Z,54.90
2023-06-22T08:34:39.794Z,56.70
2023-06-22T08:36:42.416Z,57.10
2023-06-22T08:38:45.147Z,56.40
2023-06-22T08:40:48.746Z,56.30
2023-06-22T08:42:52.107Z,56.80
2023-06-22T08:44:55.087Z,56.20
2023-06-22T08:46:57.913Z,57.00
2023-06-22T08:49:00.761Z,55.60
2023-06-22T08:51:03.554Z,55.10
2023-06-22T08:53:06.474Z,55.60
2023-06-22T08:55:08.965Z,56.50
2023-06-22T08:57:11.954Z,56.50
2023-06-22T08:59:15.470Z,56.90
2023-06-22T09:01:18.309Z,56.30
2023-06-22T09:03:21.122Z,56.90
2023-06-22T09:05:24.018Z,57.70
2023-06-22T09:07:26.642Z,57.80
2023-06-22T09:09:29.425Z,57.10
2023-06-22T09:11:32.963Z,56.70
2023-06-22T09:13:36.340Z,56.30
2023-06-22T09:15:39.309Z,56.60
2023-06-22T09:17:41.921Z,57.20
2023-06-22T09:19:44.551Z,57.60
2023-06-22T09:21:47.692Z,58.20
2023-06-22T09:23:50.491Z,58.00
2023-06-22T09:25:53.286Z,57.10
2023-06-22T09:27:56.139Z,56.80
2023-06-22T09:29:58.750Z,56.90
2023-06-22T09:32:02.409Z,56.80
2023-06-22T09:34:05.660Z,56.80
2023-06-22T09:36:09.333Z,56.40
2023-06-22T09:38:11.829Z,58.70
2023-06-22T09:40:14.822Z,58.30
2023-06-22T09:42:17.477Z,57.70
2023-06-22T09:44:20.276Z,55.90
2023-06-22T09:46:22.967Z,57.70
2023-06-22T09:48:25.797Z,59.50
2023-06-22T09:50:28.757Z,61.80
2023-06-22T09:52:46.693Z,62.00
2023-06-22T09:54:50.275Z,62.20
2023-06-22T09:56:53.756Z,62.20
2023-06-22T09:59:02.995Z,62.40
2023-06-22T10:01:16.587Z,62.80
2023-06-22T10:03:19.260Z,62.90
2023-06-22T10:05:22.792Z,63.20
2023-06-22T10:07:25.809Z,63.30
2023-06-22T10:09:29.508Z,63.40
2023-06-22T10:11:32.485Z,64.10
2023-06-22T10:13:35.283Z,63.80
2023-06-22T10:15:37.853Z,64.00
2023-06-22T10:17:41.122Z,62.80
2023-06-22T10:19:43.734Z,63.70
2023-06-22T10:21:47.449Z,63.50
2023-06-22T10:23:50.553Z,63.10
2023-06-22T10:25:53.204Z,63.80
2023-06-22T10:27:55.865Z,63.80
2023-06-22T10:29:58.599Z,63.70
2023-06-22T10:32:02.005Z,63.20
2023-06-22T10:34:04.622Z,63.30
2023-06-22T10:36:07.964Z,63.60
2023-06-22T10:38:10.547Z,64.30
2023-06-22T10:40:13.193Z,63.40
2023-06-22T10:42:16.481Z,63.60
2023-06-22T10:44:19.089Z,63.90
2023-06-22T10:46:21.700Z,65.10
2023-06-22T10:48:24.654Z,65.00
2023-06-22T10:50:27.518Z,65.10
2023-06-22T10:52:30.142Z,65.70
2023-06-22T10:54:33.054Z,66.10
2023-06-22T10:56:35.818Z,65.00
2023-06-22T10:58:38.438Z,65.10
2023-06-22T11:00:41.385Z,65.20
2023-06-22T11:02:44.693Z,66.30
2023-06-22T11:04:47.603Z,65.50
2023-06-22T11:06:50.505Z,66.60
2023-06-22T11:09:04.436Z,67.00
2023-06-22T11:11:09.417Z,67.20
2023-06-22T11:13:12.539Z,67.60
2023-06-22T11:15:15.413Z,66.80
2023-06-22T11:17:18.847Z,66.60
2023-06-22T11:19:21.623Z,66.60
2023-06-22T11:21:25.016Z,68.90
2023-06-22T11:23:27.734Z,68.20
2023-06-22T11:25:30.873Z,67.20
2023-06-22T11:27:33.559Z,69.70
2023-06-22T11:29:37.941Z,71.80
2023-06-22T11:31:42.150Z,72.60
2023-06-22T11:33:45.842Z,73.00
2023-06-22T11:35:48.410Z,71.90
2023-06-22T11:37:51.437Z,73.00
2023-06-22T11:40:05.700Z,72.70
2023-06-22T11:42:15.946Z,71.70
2023-06-22T11:44:19.226Z,72.00
2023-06-22T11:46:21.835Z,72.80
2023-06-22T11:48:25.018Z,72.20
2023-06-22T11:50:28.253Z,73.80
2023-06-22T11:52:30.996Z,74.10
2023-06-22T11:54:33.754Z,74.20
2023-06-22T11:56:36.691Z,75.10
2023-06-22T11:58:39.310Z,75.90
2023-06-22T12:00:50.995Z,76.20
2023-06-22T12:02:55.158Z,76.40
2023-06-22T12:04:57.870Z,76.10
2023-06-22T12:07:01.605Z,75.90
2023-06-22T12:09:04.839Z,76.50
2023-06-22T12:11:07.639Z,76.40
2023-06-22T12:13:10.222Z,76.20
2023-06-22T12:15:13.251Z,75.80
2023-06-22T12:17:15.865Z,75.50
2023-06-22T12:19:19.322Z,76.20
2023-06-22T12:21:22.797Z,77.00
2023-06-22T12:23:25.618Z,77.70
2023-06-22T12:37:00.691Z,78.40
2023-06-22T12:39:14.239Z,80.40
2023-06-22T12:41:36.824Z,80.20
2023-06-22T12:43:46.759Z,81.50
2023-06-22T12:45:53.100Z,81.20
2023-06-22T12:47:56.720Z,81.80
2023-06-22T12:50:01.250Z,81.10
2023-06-22T12:52:06.610Z,80.80
2023-06-22T12:54:10.338Z,81.10
2023-06-22T12:56:14.225Z,81.50
2023-06-22T12:58:18.649Z,82.70
2023-06-22T13:00:21.748Z,83.30
2023-06-22T13:02:27.642Z,84.00
2023-06-22T13:04:30.536Z,84.10
2023-06-22T13:06:33.427Z,84.40
2023-06-22T13:09:15.002Z,86.10
2023-06-22T13:10:59.733Z,86.40
2023-06-22T13:13:02.578Z,87.50
2023-06-22T13:15:05.742Z,88.20
2023-06-22T13:17:09.189Z,88.10
2023-06-22T13:19:11.775Z,88.30
2023-06-22T13:21:15.492Z,87.80
2023-06-22T13:23:18.158Z,87.50
2023-06-22T13:25:21.232Z,87.40
2023-06-22T13:27:24.698Z,87.50
2023-06-22T13:29:27.566Z,87.90
2023-06-22T13:31:30.470Z,88.30
2023-06-22T13:33:33.602Z,89.10
2023-06-22T13:35:36.226Z,90.10
2023-06-22T13:37:38.853Z,91.10
2023-06-22T13:39:43.979Z,91.30
2023-06-22T13:41:46.631Z,91.10
2023-06-22T13:43:49.364Z,90.50
2023-06-22T13:45:52.326Z,90.80
2023-06-22T13:47:55.022Z,91.20
2023-06-22T13:49:58.658Z,91.30
2023-06-22T13:52:01.948Z,91.60
2023-06-22T13:54:08.225Z,91.30
2023-06-22T13:56:14.787Z,92.20
2023-06-22T13:58:18.729Z,92.70
2023-06-22T14:00:21.333Z,93.90
2023-06-22T14:02:24.740Z,93.90
2023-06-22T14:04:27.649Z,95.90
2023-06-22T14:06:30.702Z,96.20
2023-06-22T14:08:41.636Z,96.50
2023-06-22T14:10:45.992Z,96.20
2023-06-22T14:12:48.573Z,96.80
2023-06-22T14:14:51.239Z,97.90
2023-06-22T14:16:54.394Z,99.20
2023-06-22T14:21:19.882Z,99.90
2023-06-22T14:23:29.045Z,99.90
2023-06-22T14:25:31.954Z,99.90
2023-06-22T14:27:34.518Z,99.90
2023-06-22T14:29:37.666Z,99.90
2023-06-22T14:31:40.441Z,99.90
2023-06-22T14:33:43.137Z,99.90
2023-06-22T14:35:46.348Z,99.90
2023-06-22T14:37:48.995Z,99.90
2023-06-22T14:39:51.847Z,99.90
2023-06-22T14:41:55.590Z,99.90
2023-06-22T14:43:58.548Z,99.90
2023-06-22T14:46:01.238Z,99.90
2023-06-22T14:48:05.664Z,99.90
2023-06-22T14:50:08.321Z,99.90
2023-06-22T14:52:10.996Z,99.90
2023-06-22T14:54:14.551Z,99.90
2023-06-22T14:56:17.303Z,99.90
2023-06-22T14:58:19.988Z,99.90
2023-06-22T15:00:24.028Z,99.90
2023-06-22T15:02:26.840Z,99.90
2023-06-22T15:04:29.480Z,99.90
2023-06-22T15:06:32.374Z,99.90
2023-06-22T15:08:35.801Z,99.90
2023-06-22T15:10:38.473Z,99.90
2023-06-22T15:12:41.299Z,99.90
2023-06-22T15:14:43.936Z,99.90
2023-06-22T15:16:46.530Z,99.90
2023-06-22T15:18:50.126Z,99.90
2023-06-22T15:20:52.680Z,99.90
2023-06-22T15:22:55.254Z,99.90
2023-06-22T15:24:58.853Z,99.90
2023-06-22T15:27:02.211Z,99.90
2023-06-22T15:29:04.851Z,99.90
2023-06-22T15:31:09.808Z,99.90
2023-06-22T15:33:12.752Z,99.90
2023-06-22T15:35:16.225Z,99.90
2023-06-22T15:37:19.706Z,99.90
2023-06-22T15:39:22.315Z,99.90
2023-06-22T15:41:25.105Z,99.90
2023-06-22T15:43:28.287Z,99.90
2023-06-22T15:45:30.891Z,99.90
2023-06-22T15:47:33.821Z,99.90
2023-06-22T15:49:36.869Z,99.90
2023-06-22T15:51:39.483Z,99.90
2023-06-22T15:53:42.109Z,99.90
2023-06-22T15:55:45.035Z,99.90
2023-06-22T15:57:47.880Z,99.90
2023-06-22T15:59:50.885Z,99.90
2023-06-22T16:01:54.428Z,99.90
2023-06-22T16:03:57.049Z,99.90
2023-06-22T16:05:59.675Z,99.90
2023-06-22T16:08:02.810Z,99.90
2023-06-22T16:10:05.424Z,99.90
2023-06-22T16:12:08.217Z,99.90
2023-06-22T16:14:11.296Z,99.90
2023-06-22T16:16:13.900Z,99.90
2023-06-22T16:18:17.336Z,99.90
2023-06-22T16:20:20.717Z,99.90
2023-06-22T16:22:23.354Z,99.90
2023-06-22T16:24:25.943Z,99.90
2023-06-22T16:26:29.463Z,99.90
2023-06-22T16:28:32.085Z,99.90
2023-06-22T16:30:34.676Z,99.90
2023-06-22T16:32:37.614Z,99.90
2023-06-22T16:34:40.269Z,99.90
2023-06-22T16:36:42.950Z,99.90
2023-06-22T16:38:46.275Z,99.90
2023-06-22T16:40:51.681Z,99.90
2023-06-22T16:42:54.233Z,99.90
2023-06-22T16:44:58.398Z,99.90
2023-06-22T16:47:01.047Z,99.90
2023-06-22T16:49:03.643Z,99.90
2023-06-22T16:51:06.474Z,99.90
2023-06-22T16:53:09.277Z,99.90
2023-06-22T16:55:12.842Z,99.90
2023-06-22T16:57:15.684Z,99.90
2023-06-22T16:59:19.307Z,99.90
2023-06-22T17:01:21.930Z,99.90
2023-06-22T17:03:25.745Z,99.90
2023-06-22T17:05:28.628Z,99.90
2023-06-22T17:07:31.242Z,99.90
2023-06-22T17:09:34.820Z,99.90
2023-06-22T17:11:38.186Z,99.90
2023-06-22T17:13:40.897Z,99.90
2023-06-22T17:15:43.838Z,99.90
2023-06-22T17:17:46.482Z,99.90
2023-06-22T17:19:49.295Z,99.90
2023-06-22T17:21:52.829Z,99.90
2023-06-22T17:23:55.432Z,99.90
2023-06-22T17:25:58.238Z,99.90
2023-06-22T17:28:01.122Z,99.90
2023-06-22T17:30:04.545Z,99.90
2023-06-22T17:32:07.255Z,99.90
2023-06-22T17:34:10.362Z,99.90
2023-06-22T17:36:12.954Z,99.90
2023-06-22T17:38:15.623Z,99.90
2023-06-22T17:40:18.437Z,99.90
2023-06-22T17:42:21.053Z,99.90
2023-06-22T17:44:23.550Z,99.90
2023-06-22T17:46:27.318Z,99.90
2023-06-22T17:48:29.984Z,99.90
2023-06-22T17:50:33.005Z,99.90
2023-06-22T17:52:36.261Z,99.90
2023-06-22T17:54:39.908Z,99.90
2023-06-22T17:56:45.072Z,99.90
2023-06-22T17:58:48.065Z,99.90
2023-06-22T18:00:50.712Z,99.90
2023-06-22T18:02:54.212Z,99.90
2023-06-22T18:04:57.792Z,99.90
2023-06-22T18:07:01.142Z,99.90
2023-06-22T18:09:04.123Z,99.90
2023-06-22T18:11:08.250Z,99.90
2023-06-22T18:13:10.826Z,99.90
2023-06-22T18:15:13.467Z,99.90
2023-06-22T18:17:16.884Z,99.90
2023-06-22T18:19:19.486Z,99.90
2023-06-22T18:21:22.885Z,99.90
2023-06-22T18:23:26.115Z,99.90
2023-06-22T18:25:29.073Z,99.90
2023-06-22T18:27:31.909Z,99.90
2023-06-22T18:29:35.942Z,99.90
2023-06-22T18:31:38.614Z,99.90
2023-06-22T18:33:41.446Z,99.90
2023-06-22T18:35:44.828Z,99.90
2023-06-22T18:37:47.455Z,99.90
2023-06-22T18:39:50.135Z,99.90
2023-06-22T18:41:54.529Z,99.90
2023-06-22T18:43:57.168Z,99.90
2023-06-22T18:45:59.766Z,99.90
2023-06-22T18:48:02.990Z,99.90
2023-06-22T18:50:06.546Z,99.90
2023-06-22T18:52:09.180Z,99.90
2023-06-22T18:54:11.983Z,99.90
2023-06-22T18:56:14.569Z,99.90
2023-06-22T18:58:17.380Z,99.90
2023-06-22T19:00:20.234Z,99.90
2023-06-22T19:02:23.088Z,99.90
2023-06-22T19:04:25.740Z,99.90
2023-06-22T19:06:28.647Z,99.90
2023-06-22T19:08:31.292Z,99.90
2023-06-22T19:10:33.933Z,99.90
2023-06-22T19:12:38.895Z,99.90
2023-06-22T19:14:42.067Z,99.90
2023-06-22T19:16:44.603Z,99.90
2023-06-22T19:18:47.542Z,99.90
2023-06-22T19:20:50.161Z,99.90
2023-06-22T19:22:52.838Z,99.90
2023-06-22T19:24:55.851Z,99.90
2023-06-22T19:26:58.451Z,99.90
2023-06-22T19:29:01.245Z,99.90
2023-06-22T19:31:04.103Z,99.90
2023-06-22T19:33:08.526Z,99.90
2023-06-22T19:35:11.975Z,99.90
2023-06-22T19:37:15.560Z,99.90
2023-06-22T19:39:18.151Z,99.90
2023-06-22T19:41:21.552Z,99.90
2023-06-22T19:43:24.760Z,99.90
2023-06-22T19:45:27.392Z,99.90
2023-06-22T19:47:30.786Z,99.90
2023-06-22T19:49:33.759Z,99.90
2023-06-22T19:51:36.378Z,99.90
2023-06-22T19:53:38.997Z,99.90
2023-06-22T19:55:42.150Z,99.90
2023-06-22T19:57:44.956Z,99.90
2023-06-22T19:59:47.546Z,99.90
2023-06-22T20:01:51.986Z,99.90
2023-06-22T20:03:54.701Z,99.90
2023-06-22T20:05:57.332Z,99.90
2023-06-22T20:08:00.680Z,99.90
2023-06-22T20:10:03.292Z,99.90
2023-06-22T20:12:06.116Z,99.90
2023-06-22T20:14:09.038Z,99.90
2023-06-22T20:16:11.669Z,99.90
2023-06-22T20:18:15.700Z,99.90
2023-06-22T20:20:19.437Z,99.90
2023-06-22T20:22:22.094Z,99.90
2023-06-22T20:24:24.696Z,99.90
2023-06-22T20:26:27.696Z,99.90
2023-06-22T20:28:30.243Z,99.90
2023-06-22T20:30:33.220Z,99.90
2023-06-22T20:32:37.232Z,99.90
2023-06-22T20:34:41.254Z,99.90
2023-06-22T20:36:44.743Z,99.90
2023-06-22T20:38:48.781Z,99.90
2023-06-22T20:40:56.109Z,99.90
2023-06-22T20:43:00.020Z,99.90
2023-06-22T20:45:03.030Z,99.90
2023-06-22T20:47:05.873Z,99.90
2023-06-22T20:49:08.529Z,99.90
2023-06-22T20:51:11.471Z,99.90
2023-06-22T20:53:14.072Z,99.90
2023-06-22T20:55:16.703Z,99.90
2023-06-22T20:57:19.689Z,99.90
2023-06-22T20:59:22.323Z,99.90
2023-06-22T21:01:25.124Z,99.90
2023-06-22T21:03:28.812Z,99.90
2023-06-22T21:05:31.993Z,99.90
2023-06-22T21:07:34.934Z,99.90
2023-06-22T21:09:50.646Z,99.90
2023-06-22T21:11:55.014Z,99.90
2023-06-22T21:14:05.881Z,99.90
2023-06-22T21:16:17.464Z,99.90
2023-06-22T21:18:20.794Z,99.90
2023-06-22T21:20:23.421Z,99.90
2023-06-22T21:22:26.243Z,99.90
2023-06-22T21:24:29.220Z,99.90
2023-06-22T21:26:31.972Z,99.90
2023-06-22T21:28:35.702Z,99.90
2023-06-22T21:30:38.755Z,99.90
2023-06-22T21:32:41.570Z,99.90
2023-06-22T21:34:44.724Z,99.90
2023-06-22T21:36:47.657Z,99.90
2023-06-22T21:38:50.316Z,99.90
2023-06-22T21:40:53.832Z,99.90
2023-06-22T21:42:58.208Z,99.90
2023-06-22T21:45:02.059Z,99.90
2023-06-22T21:47:04.737Z,99.90
2023-06-22T21:49:08.129Z,99.90
2023-06-22T21:51:11.028Z,99.90
2023-06-22T21:53:13.984Z,99.90
2023-06-22T21:55:16.779Z,99.90
2023-06-22T21:57:19.705Z,99.90
2023-06-22T21:59:22.745Z,99.90
2023-06-22T22:01:25.636Z,99.90
2023-06-22T22:03:29.312Z,99.90
2023-06-22T22:05:33.167Z,99.90
2023-06-22T22:07:36.292Z,99.90
2023-06-22T22:09:45.541Z,99.90
2023-06-22T22:11:48.860Z,99.90
2023-06-22T22:13:52.258Z,99.90
2023-06-22T22:15:55.235Z,99.90
2023-06-22T22:18:00.796Z,99.90
2023-06-22T22:20:04.427Z,99.90
2023-06-22T22:22:07.161Z,99.90
2023-06-22T22:24:10.774Z,99.90
2023-06-22T22:26:14.757Z,99.90
2023-06-22T22:28:17.823Z,99.90
2023-06-22T22:30:22.737Z,99.90
2023-06-22T22:32:27.234Z,99.90
2023-06-22T22:34:30.108Z,99.90
2023-06-22T22:36:33.081Z,99.90
2023-06-22T22:38:35.834Z,99.90
2023-06-22T22:40:39.117Z,99.90
2023-06-22T22:42:42.120Z,99.90
2023-06-22T22:44:45.261Z,99.90
2023-06-22T22:46:49.326Z,99.90
2023-06-22T22:48:52.409Z,99.90
2023-06-22T22:50:55.909Z,99.90
2023-06-22T22:53:00.028Z,99.90
2023-06-22T22:55:03.956Z,99.90
2023-06-22T22:57:15.067Z,99.90
2023-06-22T22:59:18.976Z,99.90
2023-06-22T23:01:24.158Z,99.90
2023-06-22T23:03:31.743Z,99.90
2023-06-22T23:05:35.506Z,99.90
2023-06-22T23:07:44.723Z,99.90
2023-06-22T23:09:47.369Z,99.90
2023-06-22T23:11:50.359Z,99.90
2023-06-22T23:13:55.435Z,99.90
2023-06-22T23:15:58.449Z,99.90
2023-06-22T23:18:02.363Z,99.90
2023-06-22T23:20:06.419Z,99.90
2023-06-22T23:22:10.368Z,99.90
2023-06-22T23:24:13.544Z,99.90
2023-06-22T23:26:16.889Z,99.90
2023-06-22T23:28:36.600Z,99.90
2023-06-22T23:30:40.586Z,99.90
2023-06-22T23:32:44.314Z,99.90
2023-06-22T23:34:48.168Z,99.90
2023-06-22T23:36:51.252Z,99.90
2023-06-22T23:38:54.328Z,99.90
2023-06-22T23:40:57.331Z,99.90
2023-06-22T23:43:01.608Z,99.90
2023-06-22T23:45:05.430Z,99.90
2023-06-22T23:47:08.289Z,99.90
2023-06-22T23:49:12.263Z,99.90
2023-06-22T23:51:14.857Z,99.90
2023-06-22T23:53:18.400Z,99.90
2023-06-22T23:55:21.082Z,99.90
2023-06-22T23:57:23.909Z,99.90
2023-06-22T23:59:26.753Z,99.90
